KUNU/UNU METAR and TAF weather

Enter ICAO airport designator
Station Type Date Time Source
KUNU METAR 2022/06/26 08:55 UTC NOAA

KUNU 260855Z AUTO 00000KT 10SM SCT016 SCT044 19/19 A2998 RMK AO2 T01860186


Station Type Date Time Source
KUNU Decoded METAR 2022/06/26 08:55 UTC NOAA

Juneau, Dodge County Airport, WI, United States (KUNU) 43-25-36N 088-42-12W
Jun 26, 2022 - 04:55 AM EDT / 2022.06.26 0855 UTC
Wind: Calm:0
Visibility: 10 mile(s):0
Sky conditions: partly cloudy
Temperature: 65.5 F (18.6 C)
Dew Point: 65.5 F (18.6 C)
Relative Humidity: 100%
Pressure (altimeter): 29.98 in. Hg (1015 hPa)
ob: KUNU 260855Z AUTO 00000KT 10SM SCT016 SCT044 19/19 A2998 RMK AO2 T01860186
cycle: 9

Station Type Date Time Source
KUNU TAF UTC NOAA

Error!

Example: see airport list